Terminal Aerodrome Forecast
Issued by NWS

Home | Current Version | Previous Version | Text Only | Print | Product List | Glossary On
Versions: 1 2 3 4 5 6 7 8 9 10 11 12 13 14 15 16 17 18 19 20 21 22 23
000
FTUS41 KPHI 291127
TAFPNE
TAF
KPNE 291127Z 2912/3012 32008KT P6SM SKC
     FM292000 26008KT P6SM SKC
     FM300000 22005KT P6SM SCT250
     FM300400 20005KT P6SM BKN150
     FM300900 22010KT P6SM BKN050=

USA.gov is the U.S. government's official web portal to all federal, state and local government web resources and services.